PAB260 SBRF-GOBD
Flight info
| Callsign | PAB260 |
|---|---|
| Flight time | N/A |
| Altitude | 21000 |
| Route | DOMDO UZ14 BUGAT UL206 KODOS/N0229F230 DCT 05N024W/N0234F250 08N022W DCT TURUP UA302 PIVSA PIVSA1V |
| Aircraft | CONI/M-SDFY/C |
Departure
| Time | N/A |
|---|---|
| Airport | Recife/Guararapes - Gilberto Freyre International Airport (SBRF) |
Arrival
| Time | 2026-05-04 21:02 |
|---|---|
| Airport | Blaise Diagne International Airport (GOBD) |
| Time | Latitude | Longitude | Altitude | Speed | Heading |
|---|---|---|---|---|---|
| 2026-05-04 19:12 | 8.40695 | -21.72890 | 24913 ft | 244 kts | 34° |
| 2026-05-04 19:12 | 8.43551 | -21.70985 | 24913 ft | 247 kts | 34° |
| 2026-05-04 19:12 | 8.44990 | -21.70025 | 24913 ft | 249 kts | 34° |
| 2026-05-04 19:13 | 8.46420 | -21.69071 | 24913 ft | 250 kts | 34° |
| 2026-05-04 19:13 | 8.47875 | -21.68100 | 24913 ft | 252 kts | 34° |
| 2026-05-04 19:13 | 8.49342 | -21.67120 | 24913 ft | 253 kts | 34° |
| 2026-05-04 19:13 | 8.50814 | -21.66138 | 24913 ft | 254 kts | 34° |
| 2026-05-04 19:14 | 8.52292 | -21.65151 | 24912 ft | 256 kts | 34° |
| 2026-05-04 19:14 | 8.53779 | -21.64159 | 24912 ft | 257 kts | 34° |
| 2026-05-04 19:14 | 8.55275 | -21.63160 | 24912 ft | 258 kts | 34° |
| 2026-05-04 19:14 | 8.56778 | -21.62157 | 24913 ft | 259 kts | 34° |
| 2026-05-04 19:15 | 8.58286 | -21.61150 | 24913 ft | 261 kts | 34° |
| 2026-05-04 19:15 | 8.59801 | -21.60137 | 24913 ft | 262 kts | 34° |
| 2026-05-04 19:15 | 8.61318 | -21.59124 | 24912 ft | 261 kts | 34° |
| 2026-05-04 19:15 | 8.62833 | -21.58113 | 24911 ft | 261 kts | 34° |
| 2026-05-04 19:16 | 8.64345 | -21.57103 | 24911 ft | 260 kts | 34° |
| 2026-05-04 19:16 | 8.65856 | -21.56094 | 24911 ft | 260 kts | 34° |
| 2026-05-04 19:16 | 8.67363 | -21.55086 | 24911 ft | 260 kts | 34° |
| 2026-05-04 19:16 | 8.68869 | -21.54080 | 24911 ft | 259 kts | 34° |
| 2026-05-04 19:17 | 8.70372 | -21.53076 | 24910 ft | 259 kts | 34° |
| 2026-05-04 19:17 | 8.71872 | -21.52073 | 24908 ft | 259 kts | 34° |
| 2026-05-04 19:17 | 8.73374 | -21.51069 | 24904 ft | 259 kts | 34° |
| 2026-05-04 19:17 | 8.74873 | -21.50067 | 24902 ft | 258 kts | 34° |
| 2026-05-04 19:18 | 8.76371 | -21.49065 | 24901 ft | 258 kts | 34° |
| 2026-05-04 19:18 | 8.77867 | -21.48065 | 24901 ft | 258 kts | 34° |
| 2026-05-04 19:18 | 8.79362 | -21.47065 | 24900 ft | 258 kts | 34° |
| 2026-05-04 19:18 | 8.80857 | -21.46066 | 24900 ft | 257 kts | 34° |
| 2026-05-04 19:19 | 8.82349 | -21.45068 | 24900 ft | 257 kts | 34° |
| 2026-05-04 19:19 | 8.83838 | -21.44071 | 24901 ft | 257 kts | 34° |
| 2026-05-04 19:19 | 8.85329 | -21.43074 | 24901 ft | 257 kts | 34° |
| 2026-05-04 19:19 | 8.86817 | -21.42078 | 24901 ft | 256 kts | 34° |
| 2026-05-04 19:20 | 8.88304 | -21.41084 | 24901 ft | 256 kts | 34° |
| 2026-05-04 19:20 | 8.89792 | -21.40088 | 24896 ft | 256 kts | 34° |
| 2026-05-04 19:20 | 8.91278 | -21.39093 | 24896 ft | 256 kts | 34° |
| 2026-05-04 19:20 | 8.92765 | -21.38098 | 24899 ft | 256 kts | 34° |
| 2026-05-04 19:21 | 8.94250 | -21.37104 | 24900 ft | 256 kts | 34° |
| 2026-05-04 19:21 | 8.95733 | -21.36111 | 24900 ft | 256 kts | 34° |
| 2026-05-04 19:21 | 8.97215 | -21.35119 | 24901 ft | 255 kts | 34° |
| 2026-05-04 19:21 | 8.98698 | -21.34126 | 24901 ft | 255 kts | 34° |
| 2026-05-04 19:22 | 9.00178 | -21.33135 | 24901 ft | 255 kts | 34° |
| 2026-05-04 19:22 | 9.01639 | -21.32157 | 24901 ft | 255 kts | 34° |
| 2026-05-04 19:22 | 9.03117 | -21.31167 | 24922 ft | 254 kts | 34° |
| 2026-05-04 19:22 | 9.04581 | -21.30186 | 24981 ft | 251 kts | 34° |
| 2026-05-04 19:23 | 9.06033 | -21.29213 | 25049 ft | 248 kts | 34° |
| 2026-05-04 19:23 | 9.07465 | -21.28254 | 25118 ft | 245 kts | 33° |
| 2026-05-04 19:23 | 9.08880 | -21.27306 | 25188 ft | 243 kts | 33° |
| 2026-05-04 19:23 | 9.10281 | -21.26367 | 25258 ft | 240 kts | 33° |
| 2026-05-04 19:24 | 9.11667 | -21.25438 | 25328 ft | 238 kts | 33° |
| 2026-05-04 19:24 | 9.13041 | -21.24517 | 25399 ft | 236 kts | 33° |
| 2026-05-04 19:24 | 9.14407 | -21.23601 | 25411 ft | 237 kts | 33° |
| 2026-05-04 19:24 | 9.15807 | -21.22663 | 25235 ft | 246 kts | 33° |
| 2026-05-04 19:25 | 9.17265 | -21.21685 | 25056 ft | 255 kts | 33° |
| 2026-05-04 19:25 | 9.18758 | -21.20684 | 24951 ft | 260 kts | 34° |
| 2026-05-04 19:25 | 9.20272 | -21.19670 | 24913 ft | 261 kts | 34° |
| 2026-05-04 19:25 | 9.21787 | -21.18653 | 24904 ft | 261 kts | 34° |
| 2026-05-04 19:26 | 9.23302 | -21.17638 | 24902 ft | 261 kts | 34° |
| 2026-05-04 19:26 | 9.24814 | -21.16623 | 24901 ft | 261 kts | 34° |
| 2026-05-04 19:26 | 9.26326 | -21.15609 | 24901 ft | 261 kts | 33° |
| 2026-05-04 19:26 | 9.27835 | -21.14596 | 24900 ft | 260 kts | 33° |
| 2026-05-04 19:27 | 9.29343 | -21.13585 | 24900 ft | 260 kts | 33° |
| 2026-05-04 19:27 | 9.30850 | -21.12573 | 24901 ft | 260 kts | 33° |
| 2026-05-04 19:27 | 9.32356 | -21.11563 | 24901 ft | 259 kts | 33° |
| 2026-05-04 19:27 | 9.33839 | -21.10567 | 24901 ft | 259 kts | 33° |
| 2026-05-04 19:28 | 9.35363 | -21.09545 | 24901 ft | 259 kts | 33° |
| 2026-05-04 19:28 | 9.36844 | -21.08550 | 24900 ft | 259 kts | 33° |
| 2026-05-04 19:28 | 9.38341 | -21.07545 | 24903 ft | 259 kts | 33° |
| 2026-05-04 19:28 | 9.39841 | -21.06538 | 24902 ft | 258 kts | 33° |
| 2026-05-04 19:29 | 9.41337 | -21.05533 | 24902 ft | 258 kts | 33° |
| 2026-05-04 19:29 | 9.42836 | -21.04527 | 24901 ft | 258 kts | 33° |
| 2026-05-04 19:29 | 9.44330 | -21.03523 | 24901 ft | 258 kts | 33° |
| 2026-05-04 19:29 | 9.45827 | -21.02518 | 24900 ft | 258 kts | 33° |
| 2026-05-04 19:30 | 9.47321 | -21.01513 | 24900 ft | 258 kts | 33° |
| 2026-05-04 19:30 | 9.48329 | -21.00836 | 24902 ft | 257 kts | 33° |
| 2026-05-04 19:30 | 9.49821 | -20.99834 | 24901 ft | 257 kts | 33° |
| 2026-05-04 19:30 | 9.51314 | -20.98830 | 24901 ft | 257 kts | 33° |
| 2026-05-04 19:31 | 9.52804 | -20.97829 | 24901 ft | 257 kts | 33° |
| 2026-05-04 19:31 | 9.54295 | -20.96827 | 24902 ft | 257 kts | 33° |
| 2026-05-04 19:31 | 9.55785 | -20.95825 | 24901 ft | 257 kts | 33° |
| 2026-05-04 19:31 | 9.57274 | -20.94824 | 24901 ft | 257 kts | 33° |
| 2026-05-04 19:32 | 9.58760 | -20.93825 | 24901 ft | 257 kts | 33° |
| 2026-05-04 19:32 | 9.60251 | -20.92822 | 24901 ft | 257 kts | 33° |
| 2026-05-04 19:32 | 9.61737 | -20.91823 | 24900 ft | 257 kts | 33° |
| 2026-05-04 19:32 | 9.63224 | -20.90823 | 24901 ft | 257 kts | 33° |
| 2026-05-04 19:33 | 9.64691 | -20.89836 | 24902 ft | 257 kts | 33° |
| 2026-05-04 19:33 | 9.66176 | -20.88837 | 24905 ft | 256 kts | 33° |
| 2026-05-04 19:33 | 9.67684 | -20.87822 | 24905 ft | 256 kts | 33° |
| 2026-05-04 19:33 | 9.69150 | -20.86836 | 24906 ft | 256 kts | 33° |
| 2026-05-04 19:34 | 9.70655 | -20.85823 | 24906 ft | 256 kts | 33° |
| 2026-05-04 19:34 | 9.72139 | -20.84825 | 24906 ft | 256 kts | 33° |
| 2026-05-04 19:34 | 9.73605 | -20.83838 | 24907 ft | 256 kts | 33° |
| 2026-05-04 19:34 | 9.75088 | -20.82839 | 24906 ft | 256 kts | 33° |
| 2026-05-04 19:35 | 9.76574 | -20.81839 | 24906 ft | 256 kts | 33° |
| 2026-05-04 19:35 | 9.78058 | -20.80839 | 24906 ft | 256 kts | 33° |
| 2026-05-04 19:35 | 9.79544 | -20.79839 | 24906 ft | 256 kts | 33° |
| 2026-05-04 19:35 | 9.81029 | -20.78839 | 24906 ft | 256 kts | 33° |
| 2026-05-04 19:36 | 9.82513 | -20.77839 | 24906 ft | 256 kts | 33° |
| 2026-05-04 19:36 | 9.83999 | -20.76838 | 24905 ft | 256 kts | 33° |
| 2026-05-04 19:36 | 9.85483 | -20.75838 | 24906 ft | 256 kts | 33° |
| 2026-05-04 19:36 | 9.86968 | -20.74838 | 24906 ft | 256 kts | 33° |
| 2026-05-04 19:37 | 9.88453 | -20.73837 | 24906 ft | 256 kts | 33° |
| 2026-05-04 19:37 | 9.89938 | -20.72837 | 24906 ft | 256 kts | 33° |
| 2026-05-04 19:37 | 9.91421 | -20.71837 | 24909 ft | 256 kts | 33° |
| 2026-05-04 19:37 | 9.92906 | -20.70836 | 24908 ft | 256 kts | 33° |
| 2026-05-04 19:38 | 9.94391 | -20.69835 | 24907 ft | 256 kts | 33° |
| 2026-05-04 19:38 | 9.95875 | -20.68834 | 24906 ft | 256 kts | 33° |
| 2026-05-04 19:38 | 9.97360 | -20.67833 | 24906 ft | 256 kts | 33° |
| 2026-05-04 19:38 | 9.98845 | -20.66832 | 24906 ft | 256 kts | 33° |
| 2026-05-04 19:39 | 10.00328 | -20.65831 | 24906 ft | 256 kts | 33° |
| 2026-05-04 19:39 | 10.01813 | -20.64830 | 24906 ft | 256 kts | 33° |
| 2026-05-04 19:39 | 10.03299 | -20.63827 | 24906 ft | 256 kts | 33° |
| 2026-05-04 19:39 | 10.04784 | -20.62825 | 24906 ft | 257 kts | 33° |
| 2026-05-04 19:40 | 10.06271 | -20.61822 | 24906 ft | 257 kts | 33° |
| 2026-05-04 19:40 | 10.07759 | -20.60818 | 24906 ft | 257 kts | 33° |
| 2026-05-04 19:40 | 10.09247 | -20.59814 | 24906 ft | 257 kts | 33° |
| 2026-05-04 19:40 | 10.10715 | -20.58823 | 24906 ft | 257 kts | 33° |
| 2026-05-04 19:41 | 10.12204 | -20.57818 | 24906 ft | 257 kts | 33° |
| 2026-05-04 19:41 | 10.13713 | -20.56799 | 24905 ft | 257 kts | 33° |
| 2026-05-04 19:41 | 10.15183 | -20.55806 | 24905 ft | 257 kts | 33° |
| 2026-05-04 19:41 | 10.16673 | -20.54800 | 24906 ft | 257 kts | 33° |
| 2026-05-04 19:42 | 10.18164 | -20.53794 | 24907 ft | 257 kts | 33° |
| 2026-05-04 19:42 | 10.19653 | -20.52788 | 24906 ft | 257 kts | 33° |
| 2026-05-04 19:42 | 10.21145 | -20.51780 | 24905 ft | 258 kts | 33° |
| 2026-05-04 19:42 | 10.22636 | -20.50773 | 24905 ft | 258 kts | 33° |
| 2026-05-04 19:43 | 10.24131 | -20.49762 | 24904 ft | 258 kts | 33° |
| 2026-05-04 19:43 | 10.25623 | -20.48754 | 24905 ft | 258 kts | 33° |
| 2026-05-04 19:43 | 10.27115 | -20.47746 | 24906 ft | 258 kts | 33° |
| 2026-05-04 19:43 | 10.28609 | -20.46736 | 24905 ft | 258 kts | 33° |
| 2026-05-04 19:44 | 10.30100 | -20.45728 | 24905 ft | 258 kts | 33° |
| 2026-05-04 19:44 | 10.31595 | -20.44717 | 24905 ft | 258 kts | 33° |
| 2026-05-04 19:44 | 10.33088 | -20.43708 | 24906 ft | 258 kts | 33° |
| 2026-05-04 19:44 | 10.34581 | -20.42699 | 24906 ft | 258 kts | 33° |
| 2026-05-04 19:45 | 10.36074 | -20.41689 | 24906 ft | 258 kts | 33° |
| 2026-05-04 19:45 | 10.37570 | -20.40677 | 24905 ft | 258 kts | 33° |
| 2026-05-04 19:45 | 10.39062 | -20.39668 | 24905 ft | 258 kts | 33° |
| 2026-05-04 19:45 | 10.40537 | -20.38670 | 24906 ft | 258 kts | 33° |
| 2026-05-04 19:46 | 10.42031 | -20.37659 | 24906 ft | 258 kts | 33° |
| 2026-05-04 19:46 | 10.43526 | -20.36648 | 24905 ft | 258 kts | 33° |
| 2026-05-04 19:46 | 10.45021 | -20.35636 | 24905 ft | 258 kts | 33° |
| 2026-05-04 19:46 | 10.46516 | -20.34624 | 24905 ft | 258 kts | 33° |
| 2026-05-04 19:47 | 10.48009 | -20.33613 | 24906 ft | 258 kts | 33° |
| 2026-05-04 19:47 | 10.49505 | -20.32600 | 24906 ft | 258 kts | 33° |
| 2026-05-04 19:47 | 10.51000 | -20.31588 | 24906 ft | 258 kts | 33° |
| 2026-05-04 19:47 | 10.52495 | -20.30576 | 24905 ft | 258 kts | 33° |
| 2026-05-04 19:48 | 10.53992 | -20.29562 | 24904 ft | 258 kts | 33° |
| 2026-05-04 19:48 | 10.55487 | -20.28549 | 24904 ft | 258 kts | 33° |
| 2026-05-04 19:48 | 10.56983 | -20.27536 | 24904 ft | 258 kts | 33° |
| 2026-05-04 19:48 | 10.58479 | -20.26522 | 24905 ft | 258 kts | 33° |
| 2026-05-04 19:49 | 10.59975 | -20.25509 | 24905 ft | 258 kts | 33° |
| 2026-05-04 19:49 | 10.61470 | -20.24496 | 24906 ft | 258 kts | 33° |
| 2026-05-04 19:49 | 10.62969 | -20.23480 | 24905 ft | 259 kts | 33° |
| 2026-05-04 19:49 | 10.64464 | -20.22467 | 24905 ft | 259 kts | 33° |
| 2026-05-04 19:50 | 10.65962 | -20.21451 | 24905 ft | 259 kts | 33° |
| 2026-05-04 19:50 | 10.67457 | -20.20437 | 24904 ft | 259 kts | 33° |
| 2026-05-04 19:50 | 10.68957 | -20.19421 | 24903 ft | 259 kts | 33° |
| 2026-05-04 19:50 | 10.70455 | -20.18404 | 24905 ft | 259 kts | 33° |
| 2026-05-04 19:51 | 10.71954 | -20.17388 | 24906 ft | 259 kts | 33° |
| 2026-05-04 19:51 | 10.73452 | -20.16372 | 24906 ft | 259 kts | 33° |
| 2026-05-04 19:51 | 10.74951 | -20.15355 | 24905 ft | 259 kts | 33° |
| 2026-05-04 19:51 | 10.76451 | -20.14337 | 24904 ft | 259 kts | 33° |
| 2026-05-04 19:52 | 10.77951 | -20.13319 | 24904 ft | 259 kts | 33° |
| 2026-05-04 19:52 | 10.79452 | -20.12301 | 24905 ft | 259 kts | 33° |
| 2026-05-04 19:52 | 10.80952 | -20.11283 | 24906 ft | 259 kts | 33° |
| 2026-05-04 19:52 | 10.82451 | -20.10265 | 24906 ft | 259 kts | 33° |
| 2026-05-04 19:53 | 10.83954 | -20.09245 | 24905 ft | 259 kts | 33° |
| 2026-05-04 19:53 | 10.85436 | -20.08239 | 24905 ft | 259 kts | 33° |
| 2026-05-04 19:53 | 10.86936 | -20.07220 | 24905 ft | 260 kts | 33° |
| 2026-05-04 19:53 | 10.88439 | -20.06199 | 24905 ft | 260 kts | 33° |
| 2026-05-04 19:54 | 10.89941 | -20.05179 | 24905 ft | 260 kts | 33° |
| 2026-05-04 19:54 | 10.91444 | -20.04159 | 24905 ft | 260 kts | 33° |
| 2026-05-04 19:54 | 10.92947 | -20.03137 | 24905 ft | 260 kts | 33° |
| 2026-05-04 19:54 | 10.94452 | -20.02115 | 24905 ft | 260 kts | 33° |
| 2026-05-04 19:55 | 10.95956 | -20.01093 | 24905 ft | 260 kts | 33° |
| 2026-05-04 19:55 | 10.97461 | -20.00070 | 24905 ft | 260 kts | 33° |
| 2026-05-04 19:55 | 10.98965 | -19.99047 | 24907 ft | 260 kts | 33° |
| 2026-05-04 19:55 | 11.00471 | -19.98024 | 24906 ft | 260 kts | 33° |
| 2026-05-04 19:56 | 11.01975 | -19.97002 | 24905 ft | 260 kts | 33° |
| 2026-05-04 19:56 | 11.03481 | -19.95977 | 24904 ft | 260 kts | 33° |
| 2026-05-04 19:56 | 11.04987 | -19.94953 | 24904 ft | 260 kts | 33° |
| 2026-05-04 19:56 | 11.06494 | -19.93928 | 24904 ft | 260 kts | 33° |
| 2026-05-04 19:57 | 11.07998 | -19.92905 | 24905 ft | 260 kts | 33° |
| 2026-05-04 19:57 | 11.09504 | -19.91881 | 24905 ft | 260 kts | 33° |
| 2026-05-04 19:57 | 11.11009 | -19.90856 | 24904 ft | 260 kts | 33° |
| 2026-05-04 19:57 | 11.12517 | -19.89830 | 24905 ft | 261 kts | 33° |
| 2026-05-04 19:58 | 11.14023 | -19.88805 | 24905 ft | 261 kts | 33° |
| 2026-05-04 19:58 | 11.15531 | -19.87779 | 24906 ft | 261 kts | 33° |
| 2026-05-04 19:58 | 11.17038 | -19.86752 | 24906 ft | 261 kts | 33° |
| 2026-05-04 19:58 | 11.18545 | -19.85727 | 24905 ft | 261 kts | 33° |
| 2026-05-04 19:59 | 11.20053 | -19.84700 | 24905 ft | 261 kts | 33° |
| 2026-05-04 19:59 | 11.21564 | -19.83671 | 24905 ft | 261 kts | 33° |
| 2026-05-04 19:59 | 11.23071 | -19.82645 | 24905 ft | 261 kts | 33° |
| 2026-05-04 19:59 | 11.24581 | -19.81616 | 24904 ft | 261 kts | 33° |
| 2026-05-04 20:00 | 11.26091 | -19.80587 | 24905 ft | 261 kts | 33° |
| 2026-05-04 20:00 | 11.27601 | -19.79558 | 24905 ft | 261 kts | 33° |
| 2026-05-04 20:00 | 11.29111 | -19.78529 | 24902 ft | 261 kts | 33° |
| 2026-05-04 20:00 | 11.30620 | -19.77501 | 24903 ft | 261 kts | 33° |
| 2026-05-04 20:01 | 11.32132 | -19.76470 | 24904 ft | 261 kts | 33° |
| 2026-05-04 20:01 | 11.33642 | -19.75440 | 24904 ft | 261 kts | 33° |
| 2026-05-04 20:01 | 11.35154 | -19.74410 | 24904 ft | 261 kts | 33° |
| 2026-05-04 20:01 | 11.36664 | -19.73380 | 24905 ft | 261 kts | 33° |
| 2026-05-04 20:02 | 11.38178 | -19.72347 | 24905 ft | 262 kts | 33° |
| 2026-05-04 20:02 | 11.39690 | -19.71316 | 24905 ft | 262 kts | 33° |
| 2026-05-04 20:02 | 11.41202 | -19.70284 | 24904 ft | 262 kts | 33° |
| 2026-05-04 20:02 | 11.42716 | -19.69251 | 24904 ft | 262 kts | 33° |
| 2026-05-04 20:03 | 11.44210 | -19.68233 | 24905 ft | 262 kts | 33° |
| 2026-05-04 20:03 | 11.45751 | -19.67197 | 24905 ft | 262 kts | 32° |
| 2026-05-04 20:03 | 11.47256 | -19.66195 | 24905 ft | 262 kts | 32° |
| 2026-05-04 20:03 | 11.48785 | -19.65182 | 24905 ft | 262 kts | 32° |
| 2026-05-04 20:04 | 11.50314 | -19.64171 | 24905 ft | 262 kts | 32° |
| 2026-05-04 20:04 | 11.51846 | -19.63160 | 24904 ft | 262 kts | 32° |
| 2026-05-04 20:04 | 11.53398 | -19.62136 | 24904 ft | 262 kts | 32° |
| 2026-05-04 20:04 | 11.54909 | -19.61139 | 24905 ft | 262 kts | 32° |
| 2026-05-04 20:05 | 11.56442 | -19.60129 | 24905 ft | 262 kts | 32° |
| 2026-05-04 20:05 | 11.57976 | -19.59118 | 24904 ft | 262 kts | 32° |
| 2026-05-04 20:05 | 11.59507 | -19.58109 | 24904 ft | 262 kts | 32° |
| 2026-05-04 20:05 | 11.61043 | -19.57097 | 24903 ft | 263 kts | 32° |
| 2026-05-04 20:06 | 11.62575 | -19.56087 | 24904 ft | 263 kts | 32° |
| 2026-05-04 20:06 | 11.64110 | -19.55075 | 24904 ft | 263 kts | 32° |
| 2026-05-04 20:06 | 11.65645 | -19.54064 | 24905 ft | 263 kts | 32° |
| 2026-05-04 20:06 | 11.67178 | -19.53053 | 24904 ft | 263 kts | 32° |
| 2026-05-04 20:07 | 11.68714 | -19.52040 | 24904 ft | 263 kts | 32° |
| 2026-05-04 20:07 | 11.70249 | -19.51028 | 24904 ft | 263 kts | 32° |
| 2026-05-04 20:07 | 11.71785 | -19.50016 | 24904 ft | 263 kts | 32° |
| 2026-05-04 20:07 | 11.73319 | -19.49004 | 24904 ft | 263 kts | 32° |
| 2026-05-04 20:08 | 11.74855 | -19.47991 | 24904 ft | 263 kts | 32° |
| 2026-05-04 20:08 | 11.76392 | -19.46976 | 24903 ft | 263 kts | 32° |
| 2026-05-04 20:08 | 11.77929 | -19.45963 | 24904 ft | 263 kts | 32° |
| 2026-05-04 20:08 | 11.79465 | -19.44949 | 24904 ft | 263 kts | 32° |
| 2026-05-04 20:09 | 11.81000 | -19.43936 | 24906 ft | 263 kts | 32° |
| 2026-05-04 20:09 | 11.82535 | -19.42923 | 24905 ft | 263 kts | 32° |
| 2026-05-04 20:09 | 11.84071 | -19.41909 | 24905 ft | 263 kts | 32° |
| 2026-05-04 20:09 | 11.85609 | -19.40894 | 24905 ft | 263 kts | 32° |
| 2026-05-04 20:10 | 11.87125 | -19.39893 | 24904 ft | 263 kts | 32° |
| 2026-05-04 20:10 | 11.88682 | -19.38864 | 24904 ft | 263 kts | 32° |
| 2026-05-04 20:10 | 11.90219 | -19.37849 | 24905 ft | 263 kts | 32° |
| 2026-05-04 20:10 | 11.91755 | -19.36835 | 24906 ft | 263 kts | 32° |
| 2026-05-04 20:11 | 11.93293 | -19.35819 | 24906 ft | 263 kts | 32° |
| 2026-05-04 20:11 | 11.94809 | -19.34817 | 24907 ft | 263 kts | 32° |
| 2026-05-04 20:11 | 11.96344 | -19.33803 | 24908 ft | 263 kts | 32° |
| 2026-05-04 20:11 | 11.97882 | -19.32786 | 24907 ft | 263 kts | 32° |
| 2026-05-04 20:12 | 11.99419 | -19.31770 | 24907 ft | 263 kts | 32° |
| 2026-05-04 20:12 | 12.00958 | -19.30752 | 24906 ft | 263 kts | 32° |
| 2026-05-04 20:12 | 12.02495 | -19.29736 | 24906 ft | 263 kts | 32° |
| 2026-05-04 20:12 | 12.04034 | -19.28718 | 24906 ft | 263 kts | 32° |
| 2026-05-04 20:13 | 12.05572 | -19.27701 | 24907 ft | 264 kts | 32° |
| 2026-05-04 20:13 | 12.07112 | -19.26682 | 24907 ft | 264 kts | 32° |
| 2026-05-04 20:13 | 12.08652 | -19.25663 | 24907 ft | 264 kts | 32° |
| 2026-05-04 20:13 | 12.10191 | -19.24645 | 24907 ft | 264 kts | 32° |
| 2026-05-04 20:14 | 12.11731 | -19.23626 | 24907 ft | 264 kts | 32° |
| 2026-05-04 20:14 | 12.13272 | -19.22606 | 24906 ft | 264 kts | 32° |
| 2026-05-04 20:14 | 12.14814 | -19.21586 | 24906 ft | 264 kts | 32° |
| 2026-05-04 20:14 | 12.16354 | -19.20566 | 24906 ft | 264 kts | 32° |
| 2026-05-04 20:15 | 12.17896 | -19.19545 | 24907 ft | 264 kts | 32° |
| 2026-05-04 20:15 | 12.19437 | -19.18525 | 24907 ft | 264 kts | 32° |
| 2026-05-04 20:15 | 12.20979 | -19.17504 | 24907 ft | 264 kts | 32° |
| 2026-05-04 20:15 | 12.22522 | -19.16482 | 24907 ft | 264 kts | 32° |
| 2026-05-04 20:16 | 12.24065 | -19.15459 | 24907 ft | 264 kts | 32° |
| 2026-05-04 20:16 | 12.25609 | -19.14437 | 24906 ft | 264 kts | 32° |
| 2026-05-04 20:16 | 12.27151 | -19.13414 | 24906 ft | 264 kts | 32° |
| 2026-05-04 20:16 | 12.28694 | -19.12392 | 24906 ft | 264 kts | 32° |
| 2026-05-04 20:17 | 12.30218 | -19.11381 | 24906 ft | 264 kts | 32° |
| 2026-05-04 20:17 | 12.31762 | -19.10358 | 24906 ft | 264 kts | 32° |
| 2026-05-04 20:17 | 12.33305 | -19.09335 | 24906 ft | 265 kts | 32° |
| 2026-05-04 20:17 | 12.34850 | -19.08310 | 24906 ft | 265 kts | 32° |
| 2026-05-04 20:18 | 12.36393 | -19.07287 | 24907 ft | 265 kts | 32° |
| 2026-05-04 20:18 | 12.37938 | -19.06262 | 24906 ft | 265 kts | 32° |
| 2026-05-04 20:18 | 12.39481 | -19.05238 | 24906 ft | 265 kts | 32° |
| 2026-05-04 20:18 | 12.41026 | -19.04213 | 24906 ft | 265 kts | 32° |
| 2026-05-04 20:19 | 12.42569 | -19.03189 | 24906 ft | 265 kts | 32° |
| 2026-05-04 20:19 | 12.43613 | -19.02496 | 24906 ft | 265 kts | 32° |
| 2026-05-04 20:19 | 12.45136 | -19.01485 | 24905 ft | 265 kts | 32° |
| 2026-05-04 20:19 | 12.46680 | -19.00460 | 24904 ft | 265 kts | 32° |
| 2026-05-04 20:20 | 12.48224 | -18.99435 | 24904 ft | 265 kts | 32° |
| 2026-05-04 20:20 | 12.49769 | -18.98409 | 24905 ft | 265 kts | 32° |
| 2026-05-04 20:20 | 12.51313 | -18.97384 | 24905 ft | 265 kts | 32° |
| 2026-05-04 20:20 | 12.52856 | -18.96359 | 24905 ft | 265 kts | 32° |
| 2026-05-04 20:21 | 12.54399 | -18.95333 | 24905 ft | 265 kts | 32° |
| 2026-05-04 20:21 | 12.55943 | -18.94308 | 24905 ft | 265 kts | 32° |
| 2026-05-04 20:21 | 12.59030 | -18.92256 | 24904 ft | 265 kts | 32° |
| 2026-05-04 20:22 | 12.60573 | -18.91230 | 24905 ft | 265 kts | 32° |
| 2026-05-04 20:22 | 12.62116 | -18.90204 | 24905 ft | 265 kts | 32° |
| 2026-05-04 20:22 | 12.63660 | -18.89178 | 24905 ft | 264 kts | 32° |
| 2026-05-04 20:22 | 12.65202 | -18.88152 | 24905 ft | 265 kts | 32° |
| 2026-05-04 20:23 | 12.66745 | -18.87126 | 24904 ft | 265 kts | 32° |
| 2026-05-04 20:23 | 12.68290 | -18.86098 | 24904 ft | 265 kts | 32° |
| 2026-05-04 20:23 | 12.69832 | -18.85072 | 24904 ft | 265 kts | 32° |
| 2026-05-04 20:23 | 12.71375 | -18.84045 | 24904 ft | 265 kts | 32° |
| 2026-05-04 20:24 | 12.72919 | -18.83018 | 24905 ft | 265 kts | 32° |
| 2026-05-04 20:24 | 12.74462 | -18.81991 | 24905 ft | 265 kts | 32° |
| 2026-05-04 20:24 | 12.76007 | -18.80962 | 24905 ft | 265 kts | 32° |
| 2026-05-04 20:24 | 12.77551 | -18.79934 | 24904 ft | 265 kts | 32° |
| 2026-05-04 20:25 | 12.79097 | -18.78905 | 24904 ft | 265 kts | 32° |
| 2026-05-04 20:25 | 12.80640 | -18.77877 | 24904 ft | 265 kts | 32° |
| 2026-05-04 20:25 | 12.82186 | -18.76847 | 24904 ft | 265 kts | 32° |
| 2026-05-04 20:25 | 12.83731 | -18.75818 | 24904 ft | 265 kts | 32° |
| 2026-05-04 20:26 | 12.85276 | -18.74788 | 24904 ft | 265 kts | 32° |
| 2026-05-04 20:26 | 12.86823 | -18.73757 | 24905 ft | 265 kts | 32° |
| 2026-05-04 20:26 | 12.88368 | -18.72728 | 24905 ft | 265 kts | 32° |
| 2026-05-04 20:26 | 12.89912 | -18.71698 | 24905 ft | 265 kts | 32° |
| 2026-05-04 20:27 | 12.91459 | -18.70667 | 24904 ft | 265 kts | 32° |
| 2026-05-04 20:27 | 12.93007 | -18.69635 | 24903 ft | 265 kts | 32° |
| 2026-05-04 20:27 | 12.94553 | -18.68604 | 24904 ft | 265 kts | 32° |
| 2026-05-04 20:27 | 12.96100 | -18.67572 | 24904 ft | 265 kts | 32° |
| 2026-05-04 20:28 | 12.97644 | -18.66541 | 24904 ft | 265 kts | 32° |
| 2026-05-04 20:28 | 12.99191 | -18.65509 | 24904 ft | 265 kts | 32° |
| 2026-05-04 20:28 | 13.00718 | -18.64491 | 24904 ft | 265 kts | 32° |
| 2026-05-04 20:28 | 13.02265 | -18.63458 | 24904 ft | 265 kts | 32° |
| 2026-05-04 20:29 | 13.03813 | -18.62425 | 24904 ft | 265 kts | 32° |
| 2026-05-04 20:29 | 13.05360 | -18.61391 | 24904 ft | 265 kts | 32° |
| 2026-05-04 20:29 | 13.06908 | -18.60358 | 24904 ft | 266 kts | 32° |
| 2026-05-04 20:29 | 13.08456 | -18.59324 | 24904 ft | 266 kts | 32° |
| 2026-05-04 20:30 | 13.10004 | -18.58290 | 24904 ft | 266 kts | 32° |
| 2026-05-04 20:30 | 13.11555 | -18.57254 | 24904 ft | 266 kts | 32° |
| 2026-05-04 20:30 | 13.13101 | -18.56221 | 24904 ft | 266 kts | 32° |
| 2026-05-04 20:30 | 13.14652 | -18.55185 | 24904 ft | 266 kts | 32° |
| 2026-05-04 20:31 | 13.16202 | -18.54149 | 24904 ft | 266 kts | 32° |
| 2026-05-04 20:31 | 13.17752 | -18.53113 | 24904 ft | 266 kts | 32° |
| 2026-05-04 20:31 | 13.19302 | -18.52076 | 24904 ft | 266 kts | 32° |
| 2026-05-04 20:31 | 13.20852 | -18.51039 | 24903 ft | 266 kts | 32° |
| 2026-05-04 20:32 | 13.22403 | -18.50002 | 24903 ft | 266 kts | 32° |
| 2026-05-04 20:32 | 13.23954 | -18.48965 | 24905 ft | 266 kts | 32° |
| 2026-05-04 20:32 | 13.25508 | -18.47925 | 24905 ft | 266 kts | 32° |
| 2026-05-04 20:32 | 13.27057 | -18.46888 | 24904 ft | 266 kts | 32° |
| 2026-05-04 20:33 | 13.28610 | -18.45849 | 24903 ft | 266 kts | 32° |
| 2026-05-04 20:33 | 13.30163 | -18.44809 | 24903 ft | 267 kts | 32° |
| 2026-05-04 20:33 | 13.31717 | -18.43770 | 24903 ft | 267 kts | 32° |
| 2026-05-04 20:33 | 13.33271 | -18.42729 | 24904 ft | 267 kts | 32° |
| 2026-05-04 20:34 | 13.34826 | -18.41689 | 24904 ft | 267 kts | 32° |
| 2026-05-04 20:34 | 13.36380 | -18.40648 | 24904 ft | 267 kts | 32° |
| 2026-05-04 20:34 | 13.37933 | -18.39608 | 24904 ft | 267 kts | 32° |
| 2026-05-04 20:34 | 13.39492 | -18.38565 | 24904 ft | 267 kts | 32° |
| 2026-05-04 20:35 | 13.41046 | -18.37524 | 24903 ft | 267 kts | 32° |
| 2026-05-04 20:35 | 13.42603 | -18.36481 | 24903 ft | 267 kts | 32° |
| 2026-05-04 20:35 | 13.44160 | -18.35437 | 24903 ft | 267 kts | 32° |
| 2026-05-04 20:35 | 13.45717 | -18.34394 | 24904 ft | 267 kts | 32° |
| 2026-05-04 20:36 | 13.47275 | -18.33349 | 24904 ft | 267 kts | 32° |
| 2026-05-04 20:36 | 13.48834 | -18.32305 | 24903 ft | 268 kts | 32° |
| 2026-05-04 20:36 | 13.50393 | -18.31259 | 24903 ft | 268 kts | 32° |
| 2026-05-04 20:36 | 13.51952 | -18.30213 | 24903 ft | 268 kts | 32° |
| 2026-05-04 20:37 | 13.53512 | -18.29167 | 24902 ft | 268 kts | 32° |
| 2026-05-04 20:37 | 13.55072 | -18.28121 | 24903 ft | 268 kts | 32° |
| 2026-05-04 20:37 | 13.56633 | -18.27073 | 24903 ft | 268 kts | 32° |
| 2026-05-04 20:37 | 13.58194 | -18.26026 | 24903 ft | 268 kts | 32° |
| 2026-05-04 20:38 | 13.59755 | -18.24978 | 24903 ft | 268 kts | 32° |
| 2026-05-04 20:38 | 13.61318 | -18.23929 | 24903 ft | 268 kts | 32° |
| 2026-05-04 20:38 | 13.62881 | -18.22879 | 24903 ft | 268 kts | 32° |
| 2026-05-04 20:38 | 13.64445 | -18.21829 | 24903 ft | 268 kts | 32° |
| 2026-05-04 20:39 | 13.66008 | -18.20779 | 24903 ft | 269 kts | 32° |
| 2026-05-04 20:39 | 13.67572 | -18.19729 | 24904 ft | 269 kts | 32° |
| 2026-05-04 20:39 | 13.69136 | -18.18678 | 24903 ft | 269 kts | 32° |
| 2026-05-04 20:39 | 13.70704 | -18.17624 | 24903 ft | 269 kts | 32° |
| 2026-05-04 20:40 | 13.72268 | -18.16573 | 24903 ft | 269 kts | 32° |
| 2026-05-04 20:40 | 13.73835 | -18.15520 | 24903 ft | 269 kts | 32° |
| 2026-05-04 20:40 | 13.75401 | -18.14467 | 24903 ft | 269 kts | 32° |
| 2026-05-04 20:40 | 13.76972 | -18.13411 | 24846 ft | 272 kts | 32° |
| 2026-05-04 20:41 | 13.78580 | -18.12330 | 24647 ft | 281 kts | 32° |
| 2026-05-04 20:41 | 13.80221 | -18.11228 | 24418 ft | 290 kts | 32° |
| 2026-05-04 20:41 | 13.81832 | -18.09879 | 24170 ft | 300 kts | 46° |
| 2026-05-04 20:41 | 13.83184 | -18.08243 | 23935 ft | 308 kts | 53° |
| 2026-05-04 20:42 | 13.84456 | -18.06433 | 23693 ft | 316 kts | 56° |
| 2026-05-04 20:42 | 13.85689 | -18.04536 | 23449 ft | 323 kts | 58° |
| 2026-05-04 20:42 | 13.86927 | -18.02573 | 23141 ft | 332 kts | 58° |
| 2026-05-04 20:42 | 13.88199 | -18.00555 | 22718 ft | 340 kts | 57° |
| 2026-05-04 20:43 | 13.89522 | -17.98504 | 22270 ft | 347 kts | 57° |
| 2026-05-04 20:43 | 13.90903 | -17.96454 | 21819 ft | 350 kts | 55° |
| 2026-05-04 20:43 | 13.92350 | -17.94424 | 21367 ft | 353 kts | 53° |
| 2026-05-04 20:43 | 13.93866 | -17.92432 | 20918 ft | 354 kts | 51° |
| 2026-05-04 20:44 | 13.95442 | -17.90496 | 20470 ft | 351 kts | 50° |
| 2026-05-04 20:44 | 13.97064 | -17.88628 | 20023 ft | 348 kts | 47° |
| 2026-05-04 20:44 | 13.98719 | -17.86827 | 19575 ft | 345 kts | 46° |
| 2026-05-04 20:44 | 14.00398 | -17.85072 | 19125 ft | 342 kts | 45° |
| 2026-05-04 20:45 | 14.02084 | -17.83353 | 18674 ft | 340 kts | 45° |
| 2026-05-04 20:45 | 14.03763 | -17.81648 | 18224 ft | 338 kts | 45° |
| 2026-05-04 20:45 | 14.05417 | -17.79945 | 17773 ft | 335 kts | 46° |
| 2026-05-04 20:45 | 14.07038 | -17.78223 | 17322 ft | 333 kts | 47° |
| 2026-05-04 20:46 | 14.08611 | -17.76481 | 16872 ft | 332 kts | 49° |
| 2026-05-04 20:46 | 14.10140 | -17.74704 | 16420 ft | 330 kts | 50° |
| 2026-05-04 20:46 | 14.11615 | -17.72900 | 15970 ft | 327 kts | 52° |
| 2026-05-04 20:46 | 14.13017 | -17.71103 | 15520 ft | 317 kts | 53° |
| 2026-05-04 20:47 | 14.14346 | -17.69335 | 15071 ft | 308 kts | 54° |
| 2026-05-04 20:47 | 14.15622 | -17.67594 | 14621 ft | 301 kts | 55° |
| 2026-05-04 20:47 | 14.16865 | -17.65882 | 14170 ft | 296 kts | 56° |
| 2026-05-04 20:47 | 14.18098 | -17.64194 | 13720 ft | 293 kts | 56° |
| 2026-05-04 20:48 | 14.19331 | -17.62537 | 13270 ft | 290 kts | 55° |
| 2026-05-04 20:48 | 14.20570 | -17.60915 | 12820 ft | 287 kts | 54° |
| 2026-05-04 20:48 | 14.21824 | -17.59324 | 12369 ft | 285 kts | 54° |
| 2026-05-04 20:48 | 14.23079 | -17.57784 | 11924 ft | 283 kts | 53° |
| 2026-05-04 20:49 | 14.24358 | -17.56260 | 11474 ft | 279 kts | 52° |
| 2026-05-04 20:49 | 14.25630 | -17.54767 | 11023 ft | 275 kts | 52° |
| 2026-05-04 20:49 | 14.26889 | -17.53294 | 10572 ft | 272 kts | 52° |
| 2026-05-04 20:49 | 14.28130 | -17.51833 | 10122 ft | 270 kts | 52° |
| 2026-05-04 20:50 | 14.29355 | -17.50374 | 9671 ft | 268 kts | 52° |
| 2026-05-04 20:50 | 14.30560 | -17.48914 | 9220 ft | 267 kts | 52° |
| 2026-05-04 20:50 | 14.31748 | -17.47454 | 8822 ft | 264 kts | 53° |
| 2026-05-04 20:50 | 14.32915 | -17.46002 | 8471 ft | 262 kts | 53° |
| 2026-05-04 20:51 | 14.34073 | -17.44549 | 8121 ft | 262 kts | 53° |
| 2026-05-04 20:51 | 14.35230 | -17.43095 | 7770 ft | 262 kts | 52° |
| 2026-05-04 20:51 | 14.36386 | -17.41644 | 7420 ft | 262 kts | 52° |
| 2026-05-04 20:51 | 14.37441 | -17.40121 | 7069 ft | 261 kts | 61° |
| 2026-05-04 20:52 | 14.38260 | -17.38459 | 6720 ft | 260 kts | 66° |
| 2026-05-04 20:52 | 14.38992 | -17.36752 | 6369 ft | 260 kts | 68° |
| 2026-05-04 20:52 | 14.39692 | -17.35036 | 6019 ft | 260 kts | 68° |
| 2026-05-04 20:52 | 14.39831 | -17.34689 | 5948 ft | 260 kts | 69° |
| 2026-05-04 20:53 | 14.40429 | -17.33187 | 5642 ft | 260 kts | 69° |
| 2026-05-04 20:53 | 14.41109 | -17.31463 | 5292 ft | 259 kts | 69° |
| 2026-05-04 20:53 | 14.41782 | -17.29746 | 4942 ft | 258 kts | 69° |
| 2026-05-04 20:54 | 14.42449 | -17.28035 | 4591 ft | 257 kts | 69° |
| 2026-05-04 20:54 | 14.43113 | -17.26324 | 4240 ft | 256 kts | 69° |
| 2026-05-04 20:54 | 14.43772 | -17.24619 | 3890 ft | 256 kts | 69° |
| 2026-05-04 20:54 | 14.44428 | -17.22910 | 3585 ft | 255 kts | 69° |
| 2026-05-04 20:55 | 14.45071 | -17.21228 | 3359 ft | 250 kts | 69° |
| 2026-05-04 20:55 | 14.45699 | -17.19573 | 3157 ft | 245 kts | 69° |
| 2026-05-04 20:55 | 14.46261 | -17.18091 | 3034 ft | 239 kts | 69° |
| 2026-05-04 20:55 | 14.46854 | -17.16516 | 2974 ft | 231 kts | 69° |
| 2026-05-04 20:56 | 14.47424 | -17.15005 | 2959 ft | 221 kts | 69° |
| 2026-05-04 20:56 | 14.47968 | -17.13554 | 2956 ft | 212 kts | 69° |
| 2026-05-04 20:56 | 14.48478 | -17.12194 | 2953 ft | 200 kts | 69° |
| 2026-05-04 20:56 | 14.49001 | -17.10926 | 2939 ft | 183 kts | 61° |
| 2026-05-04 20:57 | 14.49717 | -17.09941 | 2817 ft | 162 kts | 45° |
| 2026-05-04 20:57 | 14.50426 | -17.09119 | 2685 ft | 139 kts | 46° |
| 2026-05-04 20:57 | 14.51113 | -17.08519 | 2610 ft | 123 kts | 31° |
| 2026-05-04 20:57 | 14.51910 | -17.08052 | 2513 ft | 139 kts | 23° |
| 2026-05-04 20:58 | 14.52803 | -17.07688 | 2535 ft | 134 kts | 13° |
| 2026-05-04 20:58 | 14.53699 | -17.07490 | 2521 ft | 129 kts | 4° |
| 2026-05-04 20:58 | 14.54597 | -17.07368 | 2446 ft | 129 kts | 4° |
| 2026-05-04 20:58 | 14.55476 | -17.07264 | 2384 ft | 126 kts | 0° |
| 2026-05-04 20:59 | 14.56361 | -17.07190 | 2272 ft | 129 kts | 0° |
| 2026-05-04 20:59 | 14.57251 | -17.07158 | 2133 ft | 128 kts | 355° |
| 2026-05-04 20:59 | 14.58144 | -17.07156 | 1919 ft | 129 kts | 356° |
| 2026-05-04 20:59 | 14.59041 | -17.07147 | 1730 ft | 129 kts | 355° |
| 2026-05-04 21:00 | 14.59934 | -17.07177 | 1516 ft | 127 kts | 355° |
| 2026-05-04 21:00 | 14.60818 | -17.07187 | 1271 ft | 128 kts | 357° |
| 2026-05-04 21:00 | 14.61699 | -17.07193 | 1060 ft | 126 kts | 355° |
| 2026-05-04 21:00 | 14.62568 | -17.07219 | 865 ft | 124 kts | 356° |
| 2026-05-04 21:01 | 14.63420 | -17.07243 | 693 ft | 122 kts | 356° |
| 2026-05-04 21:01 | 14.64266 | -17.07256 | 519 ft | 121 kts | 356° |
| 2026-05-04 21:01 | 14.65094 | -17.07263 | 397 ft | 117 kts | 356° |
| 2026-05-04 21:01 | 14.65893 | -17.07270 | 311 ft | 106 kts | 355° |
| 2026-05-04 21:02 | 14.66528 | -17.07283 | 299 ft | 77 kts | 359° |
| 2026-05-04 21:02 | 14.66894 | -17.07287 | 299 ft | 29 kts | 359° |
| 2026-05-04 21:02 | 14.67038 | -17.07260 | 299 ft | 17 kts | 37° |
| 2026-05-04 21:02 | 14.67077 | -17.07174 | 299 ft | 10 kts | 91° |
| 2026-05-04 21:03 | 14.67077 | -17.07159 | 299 ft | 0 kts | 88° |
| 2026-05-04 21:04 | 14.67079 | -17.07098 | 299 ft | 16 kts | 89° |
| 2026-05-04 21:04 | 14.67050 | -17.06988 | 299 ft | 14 kts | 157° |
| 2026-05-04 21:04 | 14.66935 | -17.06975 | 299 ft | 16 kts | 180° |
| 2026-05-04 21:04 | 14.66866 | -17.06959 | 299 ft | 6 kts | 119° |
| 2026-05-04 21:05 | 14.66868 | -17.06920 | 299 ft | 5 kts | 84° |
| 2026-05-04 21:05 | 14.66869 | -17.06892 | 299 ft | 1 kts | 89° |
| 2026-05-04 21:05 | 14.66869 | -17.06866 | 299 ft | 3 kts | 90° |
| 2026-05-04 21:05 | 14.66869 | -17.06862 | 299 ft | 0 kts | 90° |